Time;durP1;ratioP1;P1;durP2;ratioP2;P2;SDS_P1;SDS_P2;PMS_P1;PMS_P2;Temp;Humidity;BMP_temperature;BMP_pressure;BME280_temperature;BME280_humidity;BME280_pressure;Samples;Min_cycle;Max_cycle;Signal;HPM_P1;HPM_P2
2021/06/23 00:02:05;;;;;;;8.90;2.65;;;;;;;21.37;68.28;99992.28;1726680;80;21019;-78
2021/06/23 00:04:32;;;;;;;17.92;3.15;;;;;;;21.39;68.37;99978.65;1752475;79;21064;-78
2021/06/23 00:06:59;;;;;;;8.83;2.83;;;;;;;21.33;68.57;99976.27;1750725;80;21130;-78
2021/06/23 00:09:26;;;;;;;11.68;2.60;;;;;;;21.27;68.71;99977.58;1752868;80;22744;-78
2021/06/23 00:11:53;;;;;;;10.60;2.58;;;;;;;21.24;68.69;99980.13;1718660;82;21455;-78
2021/06/23 00:14:22;;;;;;;7.22;2.30;;;;;;;21.22;68.96;99984.02;1705779;82;21052;-78
2021/06/23 00:16:49;;;;;;;7.97;2.50;;;;;;;21.15;69.22;99979.47;1698085;82;21009;-78
2021/06/23 00:19:15;;;;;;;10.38;2.42;;;;;;;21.07;69.80;99970.23;1715715;82;20961;-78
2021/06/23 00:21:42;;;;;;;8.13;2.55;;;;;;;20.97;70.18;99971.63;1709037;82;21824;-78
2021/06/23 00:24:09;;;;;;;8.00;2.52;;;;;;;20.91;70.39;99977.78;1706833;82;21493;-78
2021/06/23 00:26:37;;;;;;;9.10;2.40;;;;;;;20.89;70.35;99979.33;1731661;81;20953;-78
2021/06/23 00:29:03;;;;;;;8.90;2.55;;;;;;;20.96;69.82;99976.69;1697274;81;21091;-79
2021/06/23 00:31:31;;;;;;;8.95;3.17;;;;;;;21.08;69.80;99977.77;1693070;82;20981;-78
2021/06/23 00:34:00;;;;;;;9.40;2.87;;;;;;;21.12;69.67;99970.97;1726066;82;21750;-78
2021/06/23 00:36:27;;;;;;;8.80;2.50;;;;;;;21.10;69.80;99969.00;1723255;79;21531;-79
2021/06/23 00:38:53;;;;;;;10.68;2.90;;;;;;;21.06;69.94;99971.27;1769312;80;21458;-78
2021/06/23 00:41:21;;;;;;;11.83;2.87;;;;;;;21.02;70.03;99972.67;1734849;80;21076;-78
2021/06/23 00:43:48;;;;;;;9.85;2.92;;;;;;;21.02;70.18;99978.05;1725219;80;21060;-78
2021/06/23 00:46:14;;;;;;;11.68;2.90;;;;;;;20.99;70.10;99977.11;1740417;80;21779;-78
2021/06/23 00:48:41;;;;;;;8.33;2.52;;;;;;;20.97;70.25;99975.14;1700434;80;20996;-78
2021/06/23 00:51:09;;;;;;;6.15;2.67;;;;;;;20.92;70.42;99970.87;1752327;80;21059;-78
2021/06/23 00:53:56;;;;;;;7.97;2.77;;;;;;;20.88;70.45;99973.65;1724116;80;21065;-78
2021/06/23 00:56:33;;;;;;;9.60;2.50;;;;;;;20.86;70.52;99967.66;1727500;80;21192;-78
2021/06/23 00:59:01;;;;;;;9.58;2.67;;;;;;;20.84;70.61;99959.81;1723516;80;21822;-78
2021/06/23 01:01:31;;;;;;;11.03;2.80;;;;;;;20.83;70.62;99960.80;1738841;80;21005;-79
2021/06/23 01:03:58;;;;;;;10.08;2.45;;;;;;;20.84;70.54;99952.23;1746741;80;21107;-78
2021/06/23 01:06:24;;;;;;;6.58;2.60;;;;;;;20.85;70.34;99953.92;1744995;80;21065;-78
2021/06/23 01:08:52;;;;;;;9.50;2.45;;;;;;;20.88;70.33;99956.72;1747511;79;21363;-78
2021/06/23 01:11:20;;;;;;;7.40;2.37;;;;;;;20.84;70.53;99951.75;1746333;80;21799;-78
2021/06/23 01:13:57;;;;;;;9.85;2.67;;;;;;;20.81;70.56;99956.16;1713136;81;21025;-78
2021/06/23 01:16:27;;;;;;;7.85;2.60;;;;;;;20.77;70.69;99948.72;1691198;83;21099;-78
2021/06/23 01:18:55;;;;;;;6.80;2.60;;;;;;;20.72;70.93;99952.48;1675665;83;21423;-77
2021/06/23 01:21:22;;;;;;;9.95;2.98;;;;;;;20.67;70.97;99953.09;1686180;84;21000;-77
2021/06/23 01:23:50;;;;;;;5.62;2.62;;;;;;;20.70;70.92;99948.66;1752183;80;21900;-77
2021/06/23 01:26:17;;;;;;;8.15;2.52;;;;;;;20.74;70.82;99945.89;1738613;81;21034;-77
2021/06/23 01:28:46;;;;;;;10.88;2.85;;;;;;;20.78;70.52;99959.77;1688178;81;21178;-77
2021/06/23 01:31:16;;;;;;;6.83;2.65;;;;;;;20.85;70.24;99970.86;1745372;80;21162;-77
2021/06/23 01:33:45;;;;;;;9.73;2.67;;;;;;;20.94;70.04;99984.09;1748493;80;21086;-77
2021/06/23 01:36:12;;;;;;;10.95;2.90;;;;;;;20.99;69.79;99976.28;1740335;80;21730;-77
2021/06/23 01:38:40;;;;;;;11.05;2.60;;;;;;;20.99;69.62;99969.06;1738702;80;21011;-79
2021/06/23 01:41:07;;;;;;;9.28;2.58;;;;;;;21.02;69.40;99968.64;1707449;82;20990;-78
2021/06/23 01:43:35;;;;;;;9.00;2.80;;;;;;;21.06;69.30;99969.09;1725322;81;20968;-78
2021/06/23 01:46:03;;;;;;;7.17;3.00;;;;;;;21.11;69.29;99967.97;1748999;80;21056;-78
2021/06/23 01:48:30;;;;;;;15.80;3.12;;;;;;;21.06;69.47;99963.21;1749101;80;21801;-78
2021/06/23 01:51:02;;;;;;;8.95;3.00;;;;;;;20.97;69.73;99971.12;1719014;82;21012;-78
2021/06/23 01:53:34;;;;;;;8.60;2.60;;;;;;;20.92;69.75;99968.70;1715337;81;21083;-78
2021/06/23 01:56:03;;;;;;;10.95;2.85;;;;;;;20.99;69.65;99969.57;1749288;80;21364;-79
2021/06/23 01:58:31;;;;;;;5.60;2.77;;;;;;;21.06;69.47;99971.27;1756613;79;20952;-79
2021/06/23 02:01:17;;;;;;;5.90;2.70;;;;;;;21.12;69.31;99970.97;1732710;80;21841;-78
2021/06/23 02:03:53;;;;;;;10.15;2.67;;;;;;;21.14;69.06;99962.22;1722684;80;21516;-77
2021/06/23 02:07:06;;;;;;;8.73;2.67;;;;;;;21.18;68.90;99958.60;1721722;82;21472;-77
2021/06/23 02:09:50;;;;;;;12.33;2.85;;;;;;;21.18;68.70;99961.30;1707192;82;21075;-78
2021/06/23 02:12:31;;;;;;;10.13;2.83;;;;;;;21.17;68.31;99958.30;1749461;80;21502;-79
2021/06/23 02:15:01;;;;;;;12.68;2.70;;;;;;;21.17;68.21;99959.64;1749181;80;22676;-79
2021/06/23 02:17:44;;;;;;;7.22;2.58;;;;;;;21.15;68.46;99955.81;1742999;80;21036;-79
2021/06/23 02:20:14;;;;;;;7.50;2.55;;;;;;;21.11;68.27;99967.45;1713344;82;21495;-79
2021/06/23 02:22:42;;;;;;;6.85;2.40;;;;;;;21.14;67.93;99956.33;1729147;80;21032;-79
2021/06/23 02:25:16;;;;;;;9.60;2.55;;;;;;;21.19;67.67;99960.26;1719947;81;21547;-80
2021/06/23 02:27:45;;;;;;;8.20;2.98;;;;;;;21.24;67.47;99967.22;1715010;81;21863;-79
2021/06/23 02:30:13;;;;;;;9.90;2.45;;;;;;;21.27;67.12;99954.75;1694156;83;21065;-79
2021/06/23 02:32:41;;;;;;;9.85;2.72;;;;;;;21.32;67.16;99964.36;1719286;82;21116;-79
2021/06/23 02:35:10;;;;;;;7.30;2.70;;;;;;;21.33;66.72;99957.98;1718375;82;21055;-79
2021/06/23 02:37:44;;;;;;;11.03;2.80;;;;;;;21.36;66.82;99954.37;1734309;80;21020;-79
2021/06/23 02:40:13;;;;;;;5.08;2.27;;;;;;;21.39;66.58;99949.09;1725600;80;21798;-76
2021/06/23 02:42:41;;;;;;;5.47;2.40;;;;;;;21.42;66.08;99955.40;1729335;80;21147;-77
2021/06/23 02:45:12;;;;;;;7.70;2.52;;;;;;;21.49;65.82;99953.56;1744740;80;21045;-77
2021/06/23 02:47:39;;;;;;;13.62;2.52;;;;;;;21.55;65.35;99949.25;1716162;82;21126;-77
2021/06/23 02:50:12;;;;;;;9.18;2.58;;;;;;;21.63;65.20;99949.06;1686199;83;21073;-77
2021/06/23 02:52:55;;;;;;;12.60;2.90;;;;;;;21.67;64.67;99947.61;1727829;81;21845;-77
2021/06/23 02:55:22;;;;;;;7.78;2.45;;;;;;;21.76;64.12;99958.48;1742153;80;21119;-77
2021/06/23 02:57:50;;;;;;;9.98;3.10;;;;;;;21.84;63.97;99966.36;1736427;80;21012;-78
2021/06/23 03:00:18;;;;;;;11.70;2.12;;;;;;;21.89;63.86;99961.70;1732865;80;21091;-77
2021/06/23 03:02:46;;;;;;;8.70;2.60;;;;;;;21.94;63.88;99965.95;1693257;82;20983;-77
2021/06/23 03:05:12;;;;;;;6.22;2.20;;;;;;;21.96;63.74;99955.30;1653602;84;21822;-77
2021/06/23 03:07:44;;;;;;;7.37;2.50;;;;;;;22.02;63.75;99967.62;1731567;80;20940;-77
2021/06/23 03:10:14;;;;;;;6.67;2.58;;;;;;;22.05;63.78;99965.34;1730345;80;21201;-77
2021/06/23 03:12:59;;;;;;;6.95;2.33;;;;;;;22.10;63.74;99968.77;1702616;82;21102;-78
2021/06/23 03:15:36;;;;;;;8.68;2.50;;;;;;;22.13;63.73;99977.80;1716580;81;21076;-78
2021/06/23 03:18:21;;;;;;;6.85;2.30;;;;;;;22.16;63.81;99971.99;1711116;82;22994;-77
2021/06/23 03:20:48;;;;;;;8.35;2.65;;;;;;;22.19;63.72;99971.57;1717481;82;20988;-78
2021/06/23 03:23:16;;;;;;;9.63;2.58;;;;;;;22.21;63.67;99973.56;1725994;82;21132;-78
2021/06/23 03:25:44;;;;;;;5.70;2.12;;;;;;;22.23;64.06;99970.97;1737981;80;21525;-78
2021/06/23 03:28:11;;;;;;;8.05;2.47;;;;;;;22.23;64.07;99972.31;1735196;80;21534;-78
2021/06/23 03:30:39;;;;;;;8.83;2.27;;;;;;;22.25;64.19;99978.30;1748944;80;22327;-79
2021/06/23 03:33:06;;;;;;;10.35;2.85;;;;;;;22.28;64.27;99976.53;1774813;78;20992;-77
2021/06/23 03:35:35;;;;;;;7.10;2.22;;;;;;;22.30;64.39;99970.97;1727199;80;21048;-77
2021/06/23 03:38:02;;;;;;;5.87;2.40;;;;;;;22.30;64.56;99968.28;1747575;80;20989;-77
2021/06/23 03:40:29;;;;;;;6.25;2.40;;;;;;;22.28;64.51;99960.39;1739298;80;20937;-77
2021/06/23 03:42:56;;;;;;;7.95;2.42;;;;;;;22.30;65.09;99958.04;1712311;82;21819;-78
2021/06/23 03:45:24;;;;;;;8.90;2.62;;;;;;;22.30;64.91;99958.04;1739361;80;21125;-78
2021/06/23 03:47:52;;;;;;;7.35;2.60;;;;;;;22.31;64.49;99952.97;1733231;80;21127;-78
2021/06/23 03:50:19;;;;;;;8.70;2.60;;;;;;;22.36;64.54;99947.25;1650277;82;21023;-79
2021/06/23 03:52:48;;;;;;;8.30;2.77;;;;;;;22.40;64.35;99948.50;1658568;84;21400;-78
2021/06/23 03:55:19;;;;;;;7.80;2.45;;;;;;;22.47;64.28;99948.47;1699649;82;22533;-77
2021/06/23 03:57:49;;;;;;;4.92;2.60;;;;;;;22.53;64.13;99946.30;1741240;81;21533;-77
2021/06/23 04:00:17;;;;;;;7.83;2.45;;;;;;;22.59;63.65;99950.03;1713957;82;21431;-77
2021/06/23 04:02:47;;;;;;;7.97;2.50;;;;;;;22.65;63.82;99951.34;1707174;82;21121;-75
2021/06/23 04:05:14;;;;;;;10.25;2.75;;;;;;;22.72;63.85;99952.16;1753600;80;20969;-76
2021/06/23 04:07:43;;;;;;;8.25;2.42;;;;;;;22.79;63.85;99946.77;1742013;80;22260;-76
2021/06/23 04:10:10;;;;;;;8.28;2.67;;;;;;;22.87;63.96;99945.19;1716652;81;21550;-75
2021/06/23 04:12:37;;;;;;;8.03;2.92;;;;;;;22.94;63.86;99944.66;1708505;82;21112;-75
2021/06/23 04:15:10;;;;;;;10.75;3.20;;;;;;;23.01;63.77;99948.69;1693906;82;21134;-75
2021/06/23 04:17:38;;;;;;;7.28;3.08;;;;;;;23.05;63.76;99949.38;1752088;80;20995;-74
2021/06/23 04:20:07;;;;;;;6.85;2.98;;;;;;;23.10;63.52;99941.50;1716561;81;22496;-75
2021/06/23 04:22:42;;;;;;;7.95;3.27;;;;;;;23.16;63.48;99941.14;1734744;80;21023;-75
2021/06/23 04:25:12;;;;;;;10.30;2.87;;;;;;;23.21;63.35;99931.09;1730128;79;21080;-75
2021/06/23 04:27:39;;;;;;;13.30;3.00;;;;;;;23.27;63.29;99926.20;1716846;82;21068;-77
2021/06/23 04:30:09;;;;;;;11.57;3.20;;;;;;;23.31;63.16;99924.19;1727818;82;21111;-75
2021/06/23 04:32:36;;;;;;;8.30;2.87;;;;;;;23.33;63.17;99922.09;1713000;81;21821;-82
2021/06/23 04:35:07;;;;;;;7.80;3.20;;;;;;;23.37;62.87;99934.64;1746649;80;21087;-81
2021/06/23 04:37:35;;;;;;;7.53;3.10;;;;;;;23.41;62.63;99936.67;1732673;80;21028;-81
2021/06/23 04:40:06;;;;;;;9.40;2.90;;;;;;;23.45;62.38;99942.97;1720183;81;21043;-80
2021/06/23 04:42:34;;;;;;;9.75;3.10;;;;;;;23.49;62.10;99960.38;1744077;80;21051;-82
2021/06/23 04:45:04;;;;;;;7.25;2.83;;;;;;;23.53;61.92;99949.46;1730547;81;21768;-80
2021/06/23 04:47:35;;;;;;;10.60;2.90;;;;;;;23.55;62.08;99954.14;1715660;82;21092;-80
2021/06/23 04:50:06;;;;;;;10.32;3.00;;;;;;;23.56;62.24;99947.17;1675669;82;21037;-80
2021/06/23 04:52:36;;;;;;;7.40;2.87;;;;;;;23.55;62.15;99949.57;1713977;82;21542;-81
2021/06/23 04:55:05;;;;;;;8.15;3.12;;;;;;;23.54;62.17;99951.11;1744205;80;21004;-80
2021/06/23 04:57:34;;;;;;;6.55;2.98;;;;;;;23.52;62.23;99959.94;1693107;82;22592;-80
2021/06/23 05:00:00;;;;;;;6.60;2.72;;;;;;;23.52;62.26;99958.06;1729659;80;20970;-79
2021/06/23 05:02:28;;;;;;;7.80;2.77;;;;;;;23.53;62.21;99971.85;1742077;80;21036;-79
2021/06/23 05:04:56;;;;;;;7.80;2.75;;;;;;;23.55;62.09;99965.75;1714828;81;21507;-79
2021/06/23 05:07:23;;;;;;;8.55;3.00;;;;;;;23.57;62.01;99971.74;1723433;82;21102;-80
2021/06/23 05:09:51;;;;;;;7.00;2.92;;;;;;;23.59;61.59;99941.89;1719067;81;21871;-80
2021/06/23 05:12:19;;;;;;;7.25;3.10;;;;;;;23.61;61.79;99960.02;1713926;81;21594;-80
2021/06/23 05:14:46;;;;;;;7.87;3.00;;;;;;;23.63;61.91;99949.32;1748672;80;21051;-81
2021/06/23 05:17:12;;;;;;;8.33;2.85;;;;;;;23.70;61.79;99951.46;1708878;82;21100;-80
2021/06/23 05:19:39;;;;;;;6.33;2.60;;;;;;;23.78;61.41;99953.59;1715836;82;21682;-80
2021/06/23 05:22:11;;;;;;;8.18;3.05;;;;;;;23.83;61.49;99950.53;1678260;84;21822;-82
2021/06/23 05:24:39;;;;;;;6.20;2.65;;;;;;;23.93;61.53;99972.48;1715532;82;21035;-83
2021/06/23 05:27:09;;;;;;;11.28;3.30;;;;;;;24.13;61.60;99964.76;1748344;79;21110;-80
2021/06/23 05:29:36;;;;;;;13.40;3.05;;;;;;;24.32;61.58;99966.49;1714012;82;21063;-80
2021/06/23 05:32:04;;;;;;;11.63;3.40;;;;;;;24.55;61.29;99973.95;1714207;82;21692;-80
2021/06/23 05:34:31;;;;;;;4.83;2.67;;;;;;;24.71;60.37;99969.86;1715704;82;21805;-81
2021/06/23 05:36:57;;;;;;;16.67;3.10;;;;;;;24.82;59.47;99968.58;1714994;82;21099;-81
2021/06/23 05:39:24;;;;;;;8.95;3.20;;;;;;;24.90;58.99;99968.81;1722362;81;21146;-80
2021/06/23 05:41:52;;;;;;;10.55;2.77;;;;;;;24.93;58.78;99972.41;1750316;80;21142;-81
2021/06/23 05:44:18;;;;;;;6.72;2.77;;;;;;;24.95;58.47;99972.17;1724827;80;21099;-80
2021/06/23 05:46:45;;;;;;;11.70;2.85;;;;;;;25.00;58.78;99977.75;1744872;80;21809;-74
2021/06/23 05:49:12;;;;;;;7.30;2.87;;;;;;;25.08;58.51;99985.55;1713983;82;21013;-75
2021/06/23 05:51:39;;;;;;;8.05;3.20;;;;;;;25.09;57.94;99984.50;1678324;84;21128;-74
2021/06/23 05:54:06;;;;;;;9.18;2.90;;;;;;;25.11;58.14;99983.24;1690821;82;21135;-75
2021/06/23 05:56:32;;;;;;;8.23;2.98;;;;;;;25.16;58.08;99981.20;1748802;80;21051;-79
2021/06/23 05:58:59;;;;;;;5.28;2.75;;;;;;;25.17;57.92;99984.20;1720857;82;22503;-79
2021/06/23 06:01:25;;;;;;;10.25;3.12;;;;;;;25.21;58.39;99982.71;1747344;80;21095;-81
2021/06/23 06:03:53;;;;;;;6.53;2.77;;;;;;;25.25;58.55;99985.25;1715109;82;21059;-79
2021/06/23 06:06:19;;;;;;;6.78;2.98;;;;;;;25.28;58.49;99988.02;1713157;82;21008;-80
2021/06/23 06:08:46;;;;;;;6.22;3.10;;;;;;;25.27;58.47;99989.07;1683850;83;21055;-81
2021/06/23 06:11:12;;;;;;;10.98;3.10;;;;;;;25.28;58.62;99988.84;1707677;82;21820;-81
2021/06/23 06:13:40;;;;;;;10.28;2.92;;;;;;;25.34;58.89;99986.59;1714874;82;21050;-80
2021/06/23 06:16:07;;;;;;;11.55;2.95;;;;;;;25.42;58.20;99995.45;1680655;82;21103;-80
2021/06/23 06:18:34;;;;;;;11.73;3.40;;;;;;;25.47;57.86;99992.34;1717823;82;21239;-79
2021/06/23 06:21:01;;;;;;;8.78;2.72;;;;;;;25.55;57.93;99993.37;1714837;82;21144;-79
2021/06/23 06:23:28;;;;;;;8.23;2.90;;;;;;;25.58;57.53;99990.77;1749939;80;21774;-80
2021/06/23 06:25:56;;;;;;;9.73;2.80;;;;;;;25.55;57.29;99993.37;1717079;81;21044;-80
2021/06/23 06:28:22;;;;;;;10.28;3.00;;;;;;;25.51;56.99;100000.31;1673932;81;21112;-80
2021/06/23 06:30:49;;;;;;;8.28;2.70;;;;;;;25.48;57.22;100000.78;1707625;82;21456;-81
2021/06/23 06:33:15;;;;;;;6.47;3.00;;;;;;;25.46;57.15;100002.86;1715615;82;21399;-79
2021/06/23 06:35:42;;;;;;;11.08;2.80;;;;;;;25.46;57.24;100005.56;1712266;82;21846;-79
2021/06/23 06:38:08;;;;;;;10.05;3.08;;;;;;;25.52;57.42;100023.59;1711696;82;21542;-80
2021/06/23 06:40:35;;;;;;;8.25;2.90;;;;;;;25.66;57.61;100016.94;1748923;80;21466;-80
2021/06/23 06:43:02;;;;;;;8.63;3.12;;;;;;;25.82;56.88;100024.98;1747899;80;20992;-80
2021/06/23 06:45:29;;;;;;;5.65;2.75;;;;;;;25.90;56.49;100008.95;1738329;80;22348;-79
2021/06/23 06:47:55;;;;;;;9.93;2.85;;;;;;;26.00;56.54;99984.86;1704143;82;22467;-80
2021/06/23 06:50:21;;;;;;;8.68;3.10;;;;;;;26.12;56.28;99984.88;1734130;80;20985;-80
2021/06/23 06:52:49;;;;;;;9.88;3.15;;;;;;;26.17;55.69;99975.55;1742858;80;21146;-79
2021/06/23 06:55:20;;;;;;;7.25;2.90;;;;;;;26.21;55.96;99988.36;1722290;81;21103;-80
2021/06/23 06:57:43;;;;;;;5.90;3.35;;;;;;;26.25;55.15;99992.27;1709052;82;21084;-80
2021/06/23 07:00:11;;;;;;;10.08;3.02;;;;;;;26.19;54.96;99991.02;1699037;82;21846;-78
2021/06/23 07:02:37;;;;;;;7.25;3.10;;;;;;;26.14;55.00;99994.41;1749890;80;21032;-79
2021/06/23 07:05:06;;;;;;;9.18;3.52;;;;;;;26.10;55.02;100002.70;1744474;80;21070;-79
2021/06/23 07:07:32;;;;;;;8.23;3.12;;;;;;;26.00;55.19;99998.92;1680456;82;21110;-78
2021/06/23 07:09:58;;;;;;;10.45;3.35;;;;;;;25.90;55.71;100004.89;1717669;82;21078;-77
2021/06/23 07:12:27;;;;;;;11.40;3.37;;;;;;;25.87;56.19;100008.90;1741988;80;21606;-80
2021/06/23 07:14:53;;;;;;;15.48;3.50;;;;;;;25.90;56.47;100013.02;1714209;82;20953;-80
2021/06/23 07:17:20;;;;;;;13.58;3.67;;;;;;;25.92;56.70;100021.72;1672256;84;20973;-79
2021/06/23 07:19:47;;;;;;;8.00;3.27;;;;;;;25.93;57.14;100034.19;1732966;82;21382;-80
2021/06/23 07:22:14;;;;;;;6.90;3.27;;;;;;;25.95;57.45;100034.78;1713447;82;21032;-78
2021/06/23 07:24:40;;;;;;;7.83;3.25;;;;;;;25.99;57.65;100040.05;1711810;82;21837;-80
2021/06/23 07:27:07;;;;;;;7.47;2.98;;;;;;;26.05;57.25;100039.63;1735494;81;21535;-79
2021/06/23 07:29:33;;;;;;;8.98;3.00;;;;;;;26.12;57.07;100043.07;1751221;80;21083;-79
2021/06/23 07:32:14;;;;;;;9.93;3.50;;;;;;;26.15;57.14;100043.45;1725767;81;21090;-79
2021/06/23 07:37:05;;;;;;;9.50;3.35;;;;;;;26.28;56.41;100055.13;1703946;80;22514;-78
2021/06/23 07:39:34;;;;;;;8.45;3.00;;;;;;;26.31;56.46;100046.53;1719180;82;21432;-80
2021/06/23 07:42:04;;;;;;;12.05;3.10;;;;;;;26.40;56.34;100045.16;1717930;82;21209;-80
2021/06/23 07:44:37;;;;;;;11.20;3.08;;;;;;;26.46;56.36;100038.30;1707782;82;21341;-81
2021/06/23 07:47:06;;;;;;;12.23;3.37;;;;;;;26.52;55.69;100038.70;1718291;81;21095;-80
2021/06/23 07:49:36;;;;;;;8.38;3.45;;;;;;;26.49;55.29;100044.59;1743093;80;22456;-78
2021/06/23 08:08:26;;;;;;;6.70;3.02;;;;;;;27.34;54.27;100048.16;1749493;80;21076;-79
2021/06/23 08:10:51;;;;;;;13.68;3.60;;;;;;;27.44;53.83;100050.80;1703277;82;21198;-80
2021/06/23 08:13:17;;;;;;;9.75;3.17;;;;;;;27.55;54.16;100056.18;1712586;82;21048;-79
2021/06/23 08:15:46;;;;;;;13.05;3.25;;;;;;;27.65;53.30;100055.05;1716487;81;21780;-79
2021/06/23 08:18:20;;;;;;;10.10;3.08;;;;;;;27.66;52.96;100067.55;1746416;80;21629;-79
2021/06/23 08:20:43;;;;;;;9.13;3.15;;;;;;;27.66;52.82;100063.48;1749230;80;20957;-81
2021/06/23 08:23:09;;;;;;;7.78;3.35;;;;;;;27.65;52.94;100065.91;1744707;80;21044;-79
2021/06/23 08:25:36;;;;;;;10.08;3.47;;;;;;;27.65;52.86;100063.20;1713455;82;21042;-80
2021/06/23 08:28:02;;;;;;;8.35;3.33;;;;;;;27.68;53.25;100059.17;1691200;83;21824;-79
2021/06/23 08:30:29;;;;;;;6.62;2.95;;;;;;;27.84;53.65;100065.72;1676383;83;20981;-79
2021/06/23 08:32:57;;;;;;;12.03;3.62;;;;;;;27.98;52.17;100079.28;1712538;82;21060;-79
2021/06/23 08:35:24;;;;;;;10.25;3.40;;;;;;;28.05;51.56;100084.03;1684804;83;21541;-79
2021/06/23 08:37:51;;;;;;;9.63;3.37;;;;;;;28.02;51.58;100094.03;1682317;83;21111;-78
2021/06/23 08:40:18;;;;;;;7.60;3.10;;;;;;;27.99;52.45;100104.03;1697148;82;21812;-76
2021/06/23 08:42:45;;;;;;;8.68;3.35;;;;;;;28.03;52.70;100107.89;1747810;80;22174;-80
2021/06/23 08:45:12;;;;;;;14.47;3.60;;;;;;;28.10;52.16;100092.82;1747069;80;21052;-80
2021/06/23 08:47:43;;;;;;;7.83;3.40;;;;;;;28.11;51.96;100098.54;1743764;80;21008;-78
2021/06/23 08:50:19;;;;;;;14.68;3.50;;;;;;;28.12;52.26;100108.33;1722804;81;21066;-77
2021/06/23 08:52:45;;;;;;;10.10;3.30;;;;;;;28.15;52.04;100092.36;1747408;80;21826;-77
2021/06/23 08:55:18;;;;;;;14.20;3.90;;;;;;;28.12;52.11;100095.58;1717192;82;21096;-79
2021/06/23 08:57:42;;;;;;;11.22;3.83;;;;;;;28.18;52.01;100098.69;1715967;82;20984;-78
2021/06/23 09:00:09;;;;;;;15.88;3.40;;;;;;;28.15;51.35;100098.33;1708222;82;21068;-78
2021/06/23 09:02:36;;;;;;;8.18;3.50;;;;;;;28.05;50.97;100089.47;1698186;82;21558;-77
2021/06/23 09:05:09;;;;;;;11.38;3.47;;;;;;;27.99;51.42;100078.74;1707630;82;22883;-78
2021/06/23 09:07:38;;;;;;;;;;;;;;;27.87;51.06;100095.91;1720522;80;21046;-80
2021/06/23 09:10:07;;;;;;;10.68;3.25;;;;;;;27.79;51.58;100084.08;1720012;82;20482;-78
2021/06/23 09:12:36;;;;;;;10.93;3.25;;;;;;;27.82;52.33;100078.72;1715022;81;21123;-80
2021/06/23 09:15:02;;;;;;;13.43;3.95;;;;;;;27.91;52.58;100093.02;1701816;82;21156;-78
2021/06/23 09:17:29;;;;;;;10.68;3.20;;;;;;;27.99;52.53;100080.95;1743913;80;21785;-79
2021/06/23 09:19:58;;;;;;;12.28;3.52;;;;;;;28.02;52.23;100070.13;1720293;81;21157;-80
2021/06/23 09:22:39;;;;;;;9.88;3.60;;;;;;;27.96;52.30;100067.84;1741236;80;21034;-81
2021/06/23 09:25:14;;;;;;;11.20;3.85;;;;;;;28.05;53.04;100075.89;1749165;79;21051;-80
2021/06/23 09:27:52;;;;;;;8.50;3.40;;;;;;;28.18;53.37;100070.17;1746827;80;21126;-80
2021/06/23 09:30:38;;;;;;;17.42;3.90;;;;;;;28.36;53.74;100073.20;1748668;80;21764;-80
2021/06/23 09:33:28;;;;;;;11.57;3.40;;;;;;;28.51;53.38;100086.23;1687036;83;21384;-80
2021/06/23 09:36:06;;;;;;;10.65;3.62;;;;;;;28.60;52.87;100080.67;1695487;81;21061;-77
2021/06/23 09:38:50;;;;;;;8.48;3.52;;;;;;;28.65;52.69;100082.09;1721821;81;21016;-79
2021/06/23 09:41:21;;;;;;;12.58;3.50;;;;;;;28.71;53.04;100076.22;1706819;81;21052;-79
2021/06/23 09:43:51;;;;;;;12.73;3.92;;;;;;;28.75;52.84;100078.72;1710290;82;21815;-80
2021/06/23 09:46:25;;;;;;;8.75;3.90;;;;;;;28.69;52.71;100075.66;1717328;82;21076;-80
2021/06/23 09:49:14;;;;;;;9.53;3.67;;;;;;;28.72;52.65;100074.61;1695994;81;21008;-80
2021/06/23 09:52:11;;;;;;;12.00;4.03;;;;;;;28.76;53.12;100089.91;1657300;84;21033;-80
2021/06/23 09:54:51;;;;;;;9.78;3.70;;;;;;;28.95;53.42;100084.52;1709828;83;21412;-81
2021/06/23 09:57:18;;;;;;;9.45;3.60;;;;;;;29.15;53.01;100080.45;1715808;82;21858;-81
2021/06/23 09:59:51;;;;;;;15.08;3.87;;;;;;;29.22;52.80;100089.22;1748436;80;21027;-80
2021/06/23 10:02:30;;;;;;;10.25;4.03;;;;;;;29.27;52.30;100086.59;1726975;80;21027;-80
2021/06/23 10:04:59;;;;;;;8.85;3.58;;;;;;;29.27;52.30;100086.59;1696902;82;21092;-79
2021/06/23 10:07:48;;;;;;;8.73;3.92;;;;;;;29.39;52.57;100094.63;1717731;81;21071;-81
2021/06/23 10:10:20;;;;;;;16.48;3.92;;;;;;;29.57;53.12;100092.45;1698372;82;21064;-76
2021/06/23 10:12:52;;;;;;;10.72;3.92;;;;;;;29.86;52.89;100093.05;1716551;82;21083;-78
2021/06/23 10:15:19;;;;;;;10.65;3.77;;;;;;;30.07;51.42;100102.30;1744814;80;21170;-76
2021/06/23 10:17:46;;;;;;;19.60;3.87;;;;;;;30.27;51.39;100102.21;1722490;81;21101;-76
2021/06/23 10:20:14;;;;;;;12.03;3.98;;;;;;;30.45;50.15;100093.12;1751750;80;21083;-75
2021/06/23 10:22:43;;;;;;;14.80;3.75;;;;;;;30.54;49.47;100091.28;1716051;82;21865;-75
2021/06/23 10:25:13;;;;;;;14.15;4.03;;;;;;;30.54;47.82;100090.74;1716145;82;20945;-75
2021/06/23 10:27:42;;;;;;;8.43;3.35;;;;;;;30.35;48.44;100088.94;1716930;82;21416;-75
2021/06/23 10:30:13;;;;;;;12.30;3.47;;;;;;;30.35;48.44;100088.94;1694357;82;21162;-77
2021/06/23 10:32:40;;;;;;;18.80;4.53;;;;;;;30.26;48.93;100085.05;1708011;82;21059;-75
2021/06/23 10:35:08;;;;;;;10.80;3.65;;;;;;;30.24;49.49;100086.39;1709685;82;21880;-75
2021/06/23 10:37:37;;;;;;;11.00;3.95;;;;;;;30.25;49.62;100088.85;1732631;81;21144;-73
2021/06/23 10:40:06;;;;;;;10.65;3.62;;;;;;;30.27;49.48;100087.23;1721383;82;21498;-75
2021/06/23 10:42:35;;;;;;;21.75;5.00;;;;;;;30.24;50.00;100089.11;1702307;82;21107;-75
2021/06/23 10:45:02;;;;;;;16.65;4.20;;;;;;;30.16;50.23;100103.48;1681235;83;20973;-73
2021/06/23 10:47:37;;;;;;;13.48;3.75;;;;;;;30.09;50.50;100098.77;1722649;81;21785;-75
2021/06/23 10:50:05;;;;;;;10.23;3.67;;;;;;;30.02;50.52;100106.85;1689813;83;21033;-76
2021/06/23 10:52:42;;;;;;;18.20;3.70;;;;;;;29.83;50.29;100113.17;1725767;80;20964;-76
2021/06/23 10:55:25;;;;;;;9.55;3.95;;;;;;;29.58;51.27;100117.22;1717678;82;21060;-75
2021/06/23 10:57:54;;;;;;;10.20;3.87;;;;;;;29.46;52.00;100118.40;1679851;83;21468;-75
2021/06/23 11:00:27;;;;;;;10.48;3.87;;;;;;;29.42;52.21;100117.23;1695154;82;21845;-75
2021/06/23 11:03:13;;;;;;;9.20;3.92;;;;;;;29.41;52.79;100111.52;1749430;80;21114;-76
2021/06/23 11:05:50;;;;;;;13.68;4.00;;;;;;;29.38;53.26;100115.56;1750240;80;21024;-75
2021/06/23 11:08:33;;;;;;;12.85;4.08;;;;;;;29.47;53.49;100111.34;1709054;81;21506;-76
2021/06/23 11:11:04;;;;;;;;;;;;;;;29.47;53.49;100111.34;1714432;82;21095;-74
2021/06/23 11:13:36;;;;;;;14.23;4.12;;;;;;;29.46;54.00;100109.70;1696990;82;20934;-75
2021/06/23 11:16:05;;;;;;;15.25;4.45;;;;;;;29.42;54.21;100115.34;1751521;80;21494;-73
2021/06/23 11:18:38;;;;;;;21.35;4.37;;;;;;;29.42;54.21;100115.34;1749998;79;20948;-74
2021/06/23 11:21:22;;;;;;;21.80;4.40;;;;;;;29.38;54.12;100111.48;1715513;82;21123;-74
2021/06/23 11:24:02;;;;;;;17.70;4.10;;;;;;;29.35;54.19;100112.00;1712827;81;21072;-74
2021/06/23 11:26:38;;;;;;;9.90;3.95;;;;;;;29.34;54.20;100113.08;1721596;80;22535;-75
2021/06/23 11:29:15;;;;;;;13.28;3.85;;;;;;;29.30;53.69;100117.36;1749433;80;21154;-74
2021/06/23 11:31:58;;;;;;;13.22;3.70;;;;;;;29.13;53.46;100122.00;1750624;80;21000;-73
2021/06/23 11:34:43;;;;;;;17.50;4.22;;;;;;;29.13;53.46;100122.00;1718154;82;21047;-74
2021/06/23 11:37:16;;;;;;;10.65;4.12;;;;;;;29.05;53.49;100125.45;1712281;83;20995;-74
2021/06/23 11:39:43;;;;;;;12.37;4.05;;;;;;;29.04;53.33;100122.95;1703527;83;22528;-73
2021/06/23 11:42:11;;;;;;;20.02;5.05;;;;;;;28.94;53.51;100114.65;1698117;82;21136;-74
2021/06/23 11:44:39;;;;;;;23.40;4.92;;;;;;;28.90;54.02;100127.93;1705323;81;21083;-74
2021/06/23 11:47:07;;;;;;;9.63;4.05;;;;;;;28.84;54.58;100120.72;1749803;80;21059;-75
2021/06/23 11:49:34;;;;;;;12.70;4.10;;;;;;;28.78;55.12;100129.35;1715496;82;20949;-75
2021/06/23 11:52:04;;;;;;;14.80;4.47;;;;;;;28.72;55.04;100128.14;1725843;80;22485;-74
2021/06/23 11:54:31;;;;;;;13.60;4.22;;;;;;;28.57;55.54;100133.31;1748034;80;20976;-75
2021/06/23 11:56:57;;;;;;;13.22;4.50;;;;;;;28.37;55.93;100145.47;1716837;81;21476;-75
2021/06/23 11:59:24;;;;;;;15.95;4.45;;;;;;;28.37;55.93;100145.47;1701895;82;21451;-75